sensor_id;sensor_type;location;lat;lon;timestamp;temperature;humidity
8838;DHT22;4455;50.880;4.698;2022-07-01T00:02:24;14.50;99.90
8838;DHT22;4455;50.880;4.698;2022-07-01T00:04:50;14.40;99.90
8838;DHT22;4455;50.880;4.698;2022-07-01T00:07:17;14.40;99.90
8838;DHT22;4455;50.880;4.698;2022-07-01T00:09:43;14.30;99.90
8838;DHT22;4455;50.880;4.698;2022-07-01T00:12:09;14.30;99.90
8838;DHT22;4455;50.880;4.698;2022-07-01T00:14:36;14.20;99.90
8838;DHT22;4455;50.880;4.698;2022-07-01T00:17:02;14.20;99.90
8838;DHT22;4455;50.880;4.698;2022-07-01T00:19:28;14.20;99.90
8838;DHT22;4455;50.880;4.698;2022-07-01T00:21:54;14.20;99.90
8838;DHT22;4455;50.880;4.698;2022-07-01T00:24:19;14.20;99.90
8838;DHT22;4455;50.880;4.698;2022-07-01T00:26:45;14.20;99.90
8838;DHT22;4455;50.880;4.698;2022-07-01T00:29:11;14.10;99.90
8838;DHT22;4455;50.880;4.698;2022-07-01T00:31:37;14.10;99.90
8838;DHT22;4455;50.880;4.698;2022-07-01T00:34:03;14.00;99.90
8838;DHT22;4455;50.880;4.698;2022-07-01T00:36:29;14.00;99.90
8838;DHT22;4455;50.880;4.698;2022-07-01T00:38:55;14.00;99.90
8838;DHT22;4455;50.880;4.698;2022-07-01T00:41:21;14.10;99.90
8838;DHT22;4455;50.880;4.698;2022-07-01T00:43:47;14.20;99.90
8838;DHT22;4455;50.880;4.698;2022-07-01T00:46:13;14.30;99.90
8838;DHT22;4455;50.880;4.698;2022-07-01T00:48:39;14.40;99.90
8838;DHT22;4455;50.880;4.698;2022-07-01T00:51:06;14.30;99.90
8838;DHT22;4455;50.880;4.698;2022-07-01T00:53:32;14.20;99.90
8838;DHT22;4455;50.880;4.698;2022-07-01T00:55:58;14.10;99.90
8838;DHT22;4455;50.880;4.698;2022-07-01T00:58:28;14.00;99.90
8838;DHT22;4455;50.880;4.698;2022-07-01T01:00:57;14.00;99.90
8838;DHT22;4455;50.880;4.698;2022-07-01T01:03:25;14.10;99.90
8838;DHT22;4455;50.880;4.698;2022-07-01T01:05:50;14.10;99.90
8838;DHT22;4455;50.880;4.698;2022-07-01T01:08:17;14.20;99.90
8838;DHT22;4455;50.880;4.698;2022-07-01T01:10:43;14.20;99.90
8838;DHT22;4455;50.880;4.698;2022-07-01T01:13:09;14.30;99.90
8838;DHT22;4455;50.880;4.698;2022-07-01T01:15:35;14.20;99.90
8838;DHT22;4455;50.880;4.698;2022-07-01T01:18:03;14.20;99.90
8838;DHT22;4455;50.880;4.698;2022-07-01T01:20:36;14.20;99.90
8838;DHT22;4455;50.880;4.698;2022-07-01T01:23:02;14.20;99.90
8838;DHT22;4455;50.880;4.698;2022-07-01T01:25:31;14.10;99.90
8838;DHT22;4455;50.880;4.698;2022-07-01T01:27:57;14.00;99.90
8838;DHT22;4455;50.880;4.698;2022-07-01T01:30:23;13.90;99.90
8838;DHT22;4455;50.880;4.698;2022-07-01T01:32:49;13.90;99.90
8838;DHT22;4455;50.880;4.698;2022-07-01T01:35:16;13.90;99.90
8838;DHT22;4455;50.880;4.698;2022-07-01T01:37:42;13.90;99.90
8838;DHT22;4455;50.880;4.698;2022-07-01T01:40:09;14.00;99.90
8838;DHT22;4455;50.880;4.698;2022-07-01T01:42:36;14.00;99.90
8838;DHT22;4455;50.880;4.698;2022-07-01T01:45:02;14.10;99.90
8838;DHT22;4455;50.880;4.698;2022-07-01T01:47:28;14.10;99.90
8838;DHT22;4455;50.880;4.698;2022-07-01T01:49:54;14.10;99.90
8838;DHT22;4455;50.880;4.698;2022-07-01T01:52:20;14.00;99.90
8838;DHT22;4455;50.880;4.698;2022-07-01T01:54:45;14.00;99.90
8838;DHT22;4455;50.880;4.698;2022-07-01T01:57:12;14.00;99.90
8838;DHT22;4455;50.880;4.698;2022-07-01T01:59:38;14.00;99.90
8838;DHT22;4455;50.880;4.698;2022-07-01T02:02:04;13.90;99.90
8838;DHT22;4455;50.880;4.698;2022-07-01T02:04:31;13.90;99.90
8838;DHT22;4455;50.880;4.698;2022-07-01T02:06:57;13.90;99.90
8838;DHT22;4455;50.880;4.698;2022-07-01T02:09:23;13.90;99.90
8838;DHT22;4455;50.880;4.698;2022-07-01T02:11:49;13.80;99.90
8838;DHT22;4455;50.880;4.698;2022-07-01T02:14:14;13.80;99.90
8838;DHT22;4455;50.880;4.698;2022-07-01T02:16:40;13.70;99.90
8838;DHT22;4455;50.880;4.698;2022-07-01T02:19:06;13.70;99.90
8838;DHT22;4455;50.880;4.698;2022-07-01T02:21:32;13.70;99.90
8838;DHT22;4455;50.880;4.698;2022-07-01T02:23:58;13.70;99.90
8838;DHT22;4455;50.880;4.698;2022-07-01T02:26:23;13.60;99.90
8838;DHT22;4455;50.880;4.698;2022-07-01T02:28:49;13.60;99.90
8838;DHT22;4455;50.880;4.698;2022-07-01T02:31:15;13.60;99.90
8838;DHT22;4455;50.880;4.698;2022-07-01T02:33:41;13.60;99.90
8838;DHT22;4455;50.880;4.698;2022-07-01T02:36:07;13.60;99.90
8838;DHT22;4455;50.880;4.698;2022-07-01T02:38:33;13.70;99.90
8838;DHT22;4455;50.880;4.698;2022-07-01T02:40:59;13.60;99.90
8838;DHT22;4455;50.880;4.698;2022-07-01T02:43:25;13.70;99.90
8838;DHT22;4455;50.880;4.698;2022-07-01T02:45:51;13.70;99.90
8838;DHT22;4455;50.880;4.698;2022-07-01T02:48:17;13.70;99.90
8838;DHT22;4455;50.880;4.698;2022-07-01T02:50:42;13.70;99.90
8838;DHT22;4455;50.880;4.698;2022-07-01T02:53:08;13.80;99.90
8838;DHT22;4455;50.880;4.698;2022-07-01T02:55:34;13.70;99.90
8838;DHT22;4455;50.880;4.698;2022-07-01T02:58:01;13.70;99.90
8838;DHT22;4455;50.880;4.698;2022-07-01T03:00:33;13.80;99.90
8838;DHT22;4455;50.880;4.698;2022-07-01T03:02:59;14.00;99.90
8838;DHT22;4455;50.880;4.698;2022-07-01T03:05:27;14.10;99.90
8838;DHT22;4455;50.880;4.698;2022-07-01T03:07:53;14.20;99.90
8838;DHT22;4455;50.880;4.698;2022-07-01T03:10:19;14.30;99.90
8838;DHT22;4455;50.880;4.698;2022-07-01T03:12:47;14.40;99.90
8838;DHT22;4455;50.880;4.698;2022-07-01T03:15:15;14.50;99.90
8838;DHT22;4455;50.880;4.698;2022-07-01T03:17:43;14.60;99.90
8838;DHT22;4455;50.880;4.698;2022-07-01T03:20:15;14.60;99.90
8838;DHT22;4455;50.880;4.698;2022-07-01T03:22:42;14.70;99.90
8838;DHT22;4455;50.880;4.698;2022-07-01T03:25:09;14.70;99.90
8838;DHT22;4455;50.880;4.698;2022-07-01T03:27:35;14.70;99.90
8838;DHT22;4455;50.880;4.698;2022-07-01T03:30:06;14.70;99.90
8838;DHT22;4455;50.880;4.698;2022-07-01T03:32:33;14.60;99.90
8838;DHT22;4455;50.880;4.698;2022-07-01T03:34:59;14.50;99.90
8838;DHT22;4455;50.880;4.698;2022-07-01T03:37:25;14.50;99.90
8838;DHT22;4455;50.880;4.698;2022-07-01T03:39:51;14.60;99.90
8838;DHT22;4455;50.880;4.698;2022-07-01T03:42:19;14.60;99.90
8838;DHT22;4455;50.880;4.698;2022-07-01T03:44:45;14.70;99.90
8838;DHT22;4455;50.880;4.698;2022-07-01T03:47:11;14.70;99.90
8838;DHT22;4455;50.880;4.698;2022-07-01T03:49:37;14.80;99.90
8838;DHT22;4455;50.880;4.698;2022-07-01T03:52:04;14.70;99.90
8838;DHT22;4455;50.880;4.698;2022-07-01T03:54:30;14.70;99.90
8838;DHT22;4455;50.880;4.698;2022-07-01T03:59:24;14.40;99.90
8838;DHT22;4455;50.880;4.698;2022-07-01T04:01:50;14.40;99.90
8838;DHT22;4455;50.880;4.698;2022-07-01T04:04:15;14.40;99.90
8838;DHT22;4455;50.880;4.698;2022-07-01T04:06:42;14.30;99.90
8838;DHT22;4455;50.880;4.698;2022-07-01T04:09:08;14.40;99.90
8838;DHT22;4455;50.880;4.698;2022-07-01T04:11:37;14.60;99.90
8838;DHT22;4455;50.880;4.698;2022-07-01T04:14:04;14.60;99.90
8838;DHT22;4455;50.880;4.698;2022-07-01T04:16:30;14.70;99.90
8838;DHT22;4455;50.880;4.698;2022-07-01T04:18:56;14.70;99.90
8838;DHT22;4455;50.880;4.698;2022-07-01T04:21:23;14.70;99.90
8838;DHT22;4455;50.880;4.698;2022-07-01T04:24:07;14.70;99.90
8838;DHT22;4455;50.880;4.698;2022-07-01T04:26:35;14.60;99.90
8838;DHT22;4455;50.880;4.698;2022-07-01T04:29:01;14.50;99.90
8838;DHT22;4455;50.880;4.698;2022-07-01T04:31:27;14.50;99.90
8838;DHT22;4455;50.880;4.698;2022-07-01T04:33:53;14.40;99.90
8838;DHT22;4455;50.880;4.698;2022-07-01T04:36:21;14.40;99.90
8838;DHT22;4455;50.880;4.698;2022-07-01T04:38:47;14.40;99.90
8838;DHT22;4455;50.880;4.698;2022-07-01T04:41:14;14.30;99.90
8838;DHT22;4455;50.880;4.698;2022-07-01T04:43:59;14.30;99.90
8838;DHT22;4455;50.880;4.698;2022-07-01T04:46:25;14.30;99.90
8838;DHT22;4455;50.880;4.698;2022-07-01T04:48:51;14.40;99.90
8838;DHT22;4455;50.880;4.698;2022-07-01T04:51:17;14.50;99.90
8838;DHT22;4455;50.880;4.698;2022-07-01T04:53:43;14.50;99.90
8838;DHT22;4455;50.880;4.698;2022-07-01T04:56:09;14.50;99.90
8838;DHT22;4455;50.880;4.698;2022-07-01T04:58:34;14.50;99.90
8838;DHT22;4455;50.880;4.698;2022-07-01T05:01:01;14.60;99.90
8838;DHT22;4455;50.880;4.698;2022-07-01T05:03:27;14.70;99.90
8838;DHT22;4455;50.880;4.698;2022-07-01T05:05:53;14.80;99.90
8838;DHT22;4455;50.880;4.698;2022-07-01T05:08:19;14.90;99.90
8838;DHT22;4455;50.880;4.698;2022-07-01T05:10:45;15.10;99.90
8838;DHT22;4455;50.880;4.698;2022-07-01T05:13:10;15.40;99.90
8838;DHT22;4455;50.880;4.698;2022-07-01T05:15:36;15.60;99.90
8838;DHT22;4455;50.880;4.698;2022-07-01T05:18:02;15.80;99.90
8838;DHT22;4455;50.880;4.698;2022-07-01T05:20:46;16.00;99.90
8838;DHT22;4455;50.880;4.698;2022-07-01T05:23:31;16.30;99.90
8838;DHT22;4455;50.880;4.698;2022-07-01T05:25:56;16.50;99.90
8838;DHT22;4455;50.880;4.698;2022-07-01T05:28:22;16.60;99.90
8838;DHT22;4455;50.880;4.698;2022-07-01T05:30:48;16.50;99.90
8838;DHT22;4455;50.880;4.698;2022-07-01T05:33:14;16.40;99.90
8838;DHT22;4455;50.880;4.698;2022-07-01T05:35:40;16.20;99.90
8838;DHT22;4455;50.880;4.698;2022-07-01T05:38:06;16.10;99.90
8838;DHT22;4455;50.880;4.698;2022-07-01T05:40:32;16.00;99.90
8838;DHT22;4455;50.880;4.698;2022-07-01T05:42:57;16.00;99.90
8838;DHT22;4455;50.880;4.698;2022-07-01T05:45:23;15.70;99.90
8838;DHT22;4455;50.880;4.698;2022-07-01T05:47:49;15.60;99.90
8838;DHT22;4455;50.880;4.698;2022-07-01T05:50:15;15.50;99.90
8838;DHT22;4455;50.880;4.698;2022-07-01T05:52:41;15.40;99.90
8838;DHT22;4455;50.880;4.698;2022-07-01T05:55:10;15.50;99.90
8838;DHT22;4455;50.880;4.698;2022-07-01T05:57:36;15.80;99.90
8838;DHT22;4455;50.880;4.698;2022-07-01T06:00:03;16.20;99.90
8838;DHT22;4455;50.880;4.698;2022-07-01T06:02:30;16.50;99.90
8838;DHT22;4455;50.880;4.698;2022-07-01T06:04:56;16.70;99.90
8838;DHT22;4455;50.880;4.698;2022-07-01T06:07:21;16.80;99.90
8838;DHT22;4455;50.880;4.698;2022-07-01T06:09:47;16.70;99.90
8838;DHT22;4455;50.880;4.698;2022-07-01T06:12:13;16.60;99.90
8838;DHT22;4455;50.880;4.698;2022-07-01T06:14:39;16.50;99.90
8838;DHT22;4455;50.880;4.698;2022-07-01T06:17:05;16.70;99.90
8838;DHT22;4455;50.880;4.698;2022-07-01T06:19:30;17.00;99.90
8838;DHT22;4455;50.880;4.698;2022-07-01T06:21:56;17.40;99.90
8838;DHT22;4455;50.880;4.698;2022-07-01T06:24:22;17.60;99.90
8838;DHT22;4455;50.880;4.698;2022-07-01T06:26:48;17.70;99.90
8838;DHT22;4455;50.880;4.698;2022-07-01T06:29:13;17.70;99.90
8838;DHT22;4455;50.880;4.698;2022-07-01T06:31:39;17.80;99.90
8838;DHT22;4455;50.880;4.698;2022-07-01T06:34:05;18.00;99.90
8838;DHT22;4455;50.880;4.698;2022-07-01T06:36:31;18.20;99.90
8838;DHT22;4455;50.880;4.698;2022-07-01T06:38:58;18.20;99.90
8838;DHT22;4455;50.880;4.698;2022-07-01T06:41:24;18.20;99.90
8838;DHT22;4455;50.880;4.698;2022-07-01T06:44:00;18.10;99.90
8838;DHT22;4455;50.880;4.698;2022-07-01T06:46:27;17.90;99.90
8838;DHT22;4455;50.880;4.698;2022-07-01T06:48:53;18.30;99.90
8838;DHT22;4455;50.880;4.698;2022-07-01T06:51:19;19.00;99.90
8838;DHT22;4455;50.880;4.698;2022-07-01T06:53:45;19.80;99.90
8838;DHT22;4455;50.880;4.698;2022-07-01T06:56:15;20.40;99.90
8838;DHT22;4455;50.880;4.698;2022-07-01T06:58:41;20.80;99.90
8838;DHT22;4455;50.880;4.698;2022-07-01T07:01:07;21.20;99.90
8838;DHT22;4455;50.880;4.698;2022-07-01T07:03:33;21.60;99.90
8838;DHT22;4455;50.880;4.698;2022-07-01T07:05:59;21.60;99.90
8838;DHT22;4455;50.880;4.698;2022-07-01T07:08:27;21.60;99.90
8838;DHT22;4455;50.880;4.698;2022-07-01T07:10:54;21.50;99.90
8838;DHT22;4455;50.880;4.698;2022-07-01T07:13:20;21.30;99.90
8838;DHT22;4455;50.880;4.698;2022-07-01T07:15:46;21.20;99.90
8838;DHT22;4455;50.880;4.698;2022-07-01T07:18:12;21.30;99.90
8838;DHT22;4455;50.880;4.698;2022-07-01T07:20:38;21.70;99.90
8838;DHT22;4455;50.880;4.698;2022-07-01T07:23:04;22.00;99.90
8838;DHT22;4455;50.880;4.698;2022-07-01T07:25:30;22.50;99.90
8838;DHT22;4455;50.880;4.698;2022-07-01T07:27:57;22.60;99.90
8838;DHT22;4455;50.880;4.698;2022-07-01T07:30:24;22.80;99.90
8838;DHT22;4455;50.880;4.698;2022-07-01T07:32:49;22.90;99.90
8838;DHT22;4455;50.880;4.698;2022-07-01T07:35:17;22.60;99.90
8838;DHT22;4455;50.880;4.698;2022-07-01T07:37:43;22.30;99.90
8838;DHT22;4455;50.880;4.698;2022-07-01T07:40:10;22.10;99.90
8838;DHT22;4455;50.880;4.698;2022-07-01T07:42:38;22.10;99.90
8838;DHT22;4455;50.880;4.698;2022-07-01T07:45:05;22.60;99.90
8838;DHT22;4455;50.880;4.698;2022-07-01T07:47:35;22.50;99.90
8838;DHT22;4455;50.880;4.698;2022-07-01T07:50:02;22.60;99.90
8838;DHT22;4455;50.880;4.698;2022-07-01T07:52:28;22.80;99.90
8838;DHT22;4455;50.880;4.698;2022-07-01T07:54:55;23.10;99.90
8838;DHT22;4455;50.880;4.698;2022-07-01T07:57:21;23.50;99.90
8838;DHT22;4455;50.880;4.698;2022-07-01T07:59:46;23.60;99.90
8838;DHT22;4455;50.880;4.698;2022-07-01T08:02:13;23.30;99.90
8838;DHT22;4455;50.880;4.698;2022-07-01T08:04:39;23.10;99.90
8838;DHT22;4455;50.880;4.698;2022-07-01T08:07:05;22.80;99.90
8838;DHT22;4455;50.880;4.698;2022-07-01T08:09:31;23.10;99.90
8838;DHT22;4455;50.880;4.698;2022-07-01T08:12:03;23.40;99.90
8838;DHT22;4455;50.880;4.698;2022-07-01T08:14:29;23.70;99.90
8838;DHT22;4455;50.880;4.698;2022-07-01T08:16:55;23.70;99.90
8838;DHT22;4455;50.880;4.698;2022-07-01T08:19:21;23.60;99.90
8838;DHT22;4455;50.880;4.698;2022-07-01T08:21:47;23.60;99.90
8838;DHT22;4455;50.880;4.698;2022-07-01T08:24:13;23.60;99.90
8838;DHT22;4455;50.880;4.698;2022-07-01T08:26:39;23.60;99.90
8838;DHT22;4455;50.880;4.698;2022-07-01T08:29:05;23.80;99.90
8838;DHT22;4455;50.880;4.698;2022-07-01T08:31:31;23.60;99.90
8838;DHT22;4455;50.880;4.698;2022-07-01T08:33:57;23.20;99.90
8838;DHT22;4455;50.880;4.698;2022-07-01T08:36:24;22.70;99.90
8838;DHT22;4455;50.880;4.698;2022-07-01T08:38:51;22.40;99.90
8838;DHT22;4455;50.880;4.698;2022-07-01T08:41:17;22.10;99.90
8838;DHT22;4455;50.880;4.698;2022-07-01T08:43:44;21.80;99.90
8838;DHT22;4455;50.880;4.698;2022-07-01T08:46:11;21.70;99.90
8838;DHT22;4455;50.880;4.698;2022-07-01T08:48:37;21.40;99.90
8838;DHT22;4455;50.880;4.698;2022-07-01T08:51:06;21.40;99.90
8838;DHT22;4455;50.880;4.698;2022-07-01T08:53:32;21.50;99.90
8838;DHT22;4455;50.880;4.698;2022-07-01T08:55:58;21.60;99.90
8838;DHT22;4455;50.880;4.698;2022-07-01T08:58:43;21.50;99.90
8838;DHT22;4455;50.880;4.698;2022-07-01T09:01:24;21.30;99.90
8838;DHT22;4455;50.880;4.698;2022-07-01T09:03:52;21.30;99.90
8838;DHT22;4455;50.880;4.698;2022-07-01T09:06:25;21.40;99.90
8838;DHT22;4455;50.880;4.698;2022-07-01T09:08:51;21.50;99.90
8838;DHT22;4455;50.880;4.698;2022-07-01T09:11:23;21.70;99.90
8838;DHT22;4455;50.880;4.698;2022-07-01T09:14:07;21.70;99.90
8838;DHT22;4455;50.880;4.698;2022-07-01T09:16:44;21.90;99.90
8838;DHT22;4455;50.880;4.698;2022-07-01T09:19:12;22.10;99.90
8838;DHT22;4455;50.880;4.698;2022-07-01T09:21:39;21.90;99.90
8838;DHT22;4455;50.880;4.698;2022-07-01T09:27:06;21.30;99.90
8838;DHT22;4455;50.880;4.698;2022-07-01T09:29:39;21.10;99.90
8838;DHT22;4455;50.880;4.698;2022-07-01T09:32:08;20.90;99.90
8838;DHT22;4455;50.880;4.698;2022-07-01T09:34:43;21.00;99.90
8838;DHT22;4455;50.880;4.698;2022-07-01T09:37:15;21.10;99.90
8838;DHT22;4455;50.880;4.698;2022-07-01T09:39:47;21.30;99.90
8838;DHT22;4455;50.880;4.698;2022-07-01T09:42:14;21.40;99.90
8838;DHT22;4455;50.880;4.698;2022-07-01T09:47:25;21.40;99.90
8838;DHT22;4455;50.880;4.698;2022-07-01T09:49:51;21.40;99.90
8838;DHT22;4455;50.880;4.698;2022-07-01T09:52:18;21.40;99.90
8838;DHT22;4455;50.880;4.698;2022-07-01T09:54:45;21.30;99.90
8838;DHT22;4455;50.880;4.698;2022-07-01T09:57:13;21.40;99.90
8838;DHT22;4455;50.880;4.698;2022-07-01T09:59:39;21.50;99.90
8838;DHT22;4455;50.880;4.698;2022-07-01T10:02:10;21.70;99.90
8838;DHT22;4455;50.880;4.698;2022-07-01T10:04:40;21.90;99.90
8838;DHT22;4455;50.880;4.698;2022-07-01T10:07:29;22.10;99.90
8838;DHT22;4455;50.880;4.698;2022-07-01T10:13:03;22.30;99.90
8838;DHT22;4455;50.880;4.698;2022-07-01T10:15:29;22.20;99.90
8838;DHT22;4455;50.880;4.698;2022-07-01T10:17:56;22.20;99.90
8838;DHT22;4455;50.880;4.698;2022-07-01T10:20:29;21.90;99.90
8838;DHT22;4455;50.880;4.698;2022-07-01T10:23:04;21.90;99.90
8838;DHT22;4455;50.880;4.698;2022-07-01T10:28:11;21.80;99.90
8838;DHT22;4455;50.880;4.698;2022-07-01T10:30:52;21.80;99.90
8838;DHT22;4455;50.880;4.698;2022-07-01T10:35:53;21.90;99.90
8838;DHT22;4455;50.880;4.698;2022-07-01T10:38:20;22.10;99.90
8838;DHT22;4455;50.880;4.698;2022-07-01T10:40:47;22.20;99.90
8838;DHT22;4455;50.880;4.698;2022-07-01T10:43:17;22.20;99.40
8838;DHT22;4455;50.880;4.698;2022-07-01T10:45:44;22.20;99.90
8838;DHT22;4455;50.880;4.698;2022-07-01T10:48:21;22.30;99.90
8838;DHT22;4455;50.880;4.698;2022-07-01T10:50:48;22.30;99.50
8838;DHT22;4455;50.880;4.698;2022-07-01T10:53:19;22.30;99.90
8838;DHT22;4455;50.880;4.698;2022-07-01T10:55:50;22.10;99.90
8838;DHT22;4455;50.880;4.698;2022-07-01T10:58:17;21.80;99.70
8838;DHT22;4455;50.880;4.698;2022-07-01T11:00:46;21.50;99.90
8838;DHT22;4455;50.880;4.698;2022-07-01T11:03:21;21.30;99.90
8838;DHT22;4455;50.880;4.698;2022-07-01T11:05:50;21.00;99.90
8838;DHT22;4455;50.880;4.698;2022-07-01T11:08:17;20.90;99.90
8838;DHT22;4455;50.880;4.698;2022-07-01T11:10:43;21.00;99.90
8838;DHT22;4455;50.880;4.698;2022-07-01T11:13:12;21.00;99.90
8838;DHT22;4455;50.880;4.698;2022-07-01T11:15:39;21.00;99.90
8838;DHT22;4455;50.880;4.698;2022-07-01T11:18:06;21.00;99.90
8838;DHT22;4455;50.880;4.698;2022-07-01T11:20:32;21.00;99.90
8838;DHT22;4455;50.880;4.698;2022-07-01T11:22:59;21.10;99.90
8838;DHT22;4455;50.880;4.698;2022-07-01T11:25:25;21.10;99.90
8838;DHT22;4455;50.880;4.698;2022-07-01T11:27:53;21.10;99.90
8838;DHT22;4455;50.880;4.698;2022-07-01T11:30:21;21.10;99.90
8838;DHT22;4455;50.880;4.698;2022-07-01T11:32:53;21.10;99.90
8838;DHT22;4455;50.880;4.698;2022-07-01T11:35:26;21.00;99.90
8838;DHT22;4455;50.880;4.698;2022-07-01T11:38:11;21.00;99.90
8838;DHT22;4455;50.880;4.698;2022-07-01T11:40:58;21.20;99.90
8838;DHT22;4455;50.880;4.698;2022-07-01T11:43:33;21.30;99.90
8838;DHT22;4455;50.880;4.698;2022-07-01T11:46:01;21.30;99.90
8838;DHT22;4455;50.880;4.698;2022-07-01T11:48:35;21.40;99.90
8838;DHT22;4455;50.880;4.698;2022-07-01T11:53:35;21.70;99.90
8838;DHT22;4455;50.880;4.698;2022-07-01T11:56:01;21.70;99.90
8838;DHT22;4455;50.880;4.698;2022-07-01T11:58:41;21.70;99.90
8838;DHT22;4455;50.880;4.698;2022-07-01T12:01:07;21.90;99.90
8838;DHT22;4455;50.880;4.698;2022-07-01T12:03:34;21.90;98.80
8838;DHT22;4455;50.880;4.698;2022-07-01T12:06:01;21.90;99.10
8838;DHT22;4455;50.880;4.698;2022-07-01T12:08:27;21.70;98.50
8838;DHT22;4455;50.880;4.698;2022-07-01T12:10:53;21.70;97.60
8838;DHT22;4455;50.880;4.698;2022-07-01T12:13:25;21.60;97.90
8838;DHT22;4455;50.880;4.698;2022-07-01T12:15:51;21.60;98.70
8838;DHT22;4455;50.880;4.698;2022-07-01T12:18:17;21.70;98.80
8838;DHT22;4455;50.880;4.698;2022-07-01T12:20:53;21.80;98.70
8838;DHT22;4455;50.880;4.698;2022-07-01T12:23:19;21.90;98.20
8838;DHT22;4455;50.880;4.698;2022-07-01T12:25:52;21.90;98.40
8838;DHT22;4455;50.880;4.698;2022-07-01T12:28:38;21.90;98.80
8838;DHT22;4455;50.880;4.698;2022-07-01T12:31:08;22.00;99.20
8838;DHT22;4455;50.880;4.698;2022-07-01T12:33:36;22.10;98.40
8838;DHT22;4455;50.880;4.698;2022-07-01T12:36:04;22.00;99.00
8838;DHT22;4455;50.880;4.698;2022-07-01T12:38:30;22.10;98.70
8838;DHT22;4455;50.880;4.698;2022-07-01T12:40:57;22.30;98.00
8838;DHT22;4455;50.880;4.698;2022-07-01T12:43:31;22.40;96.80
8838;DHT22;4455;50.880;4.698;2022-07-01T12:46:00;22.60;96.30
8838;DHT22;4455;50.880;4.698;2022-07-01T12:48:26;22.70;95.90
8838;DHT22;4455;50.880;4.698;2022-07-01T12:50:54;22.80;95.80
8838;DHT22;4455;50.880;4.698;2022-07-01T12:53:21;22.90;94.80
8838;DHT22;4455;50.880;4.698;2022-07-01T12:55:50;22.90;95.30
8838;DHT22;4455;50.880;4.698;2022-07-01T12:58:25;22.70;95.30
8838;DHT22;4455;50.880;4.698;2022-07-01T13:00:53;22.70;95.30
8838;DHT22;4455;50.880;4.698;2022-07-01T13:03:24;22.80;95.00
8838;DHT22;4455;50.880;4.698;2022-07-01T13:05:52;22.90;94.10
8838;DHT22;4455;50.880;4.698;2022-07-01T13:08:19;22.90;94.80
8838;DHT22;4455;50.880;4.698;2022-07-01T13:10:46;23.00;93.50
8838;DHT22;4455;50.880;4.698;2022-07-01T13:13:12;23.00;93.20
8838;DHT22;4455;50.880;4.698;2022-07-01T13:15:39;23.00;94.60
8838;DHT22;4455;50.880;4.698;2022-07-01T13:18:05;22.80;93.50
8838;DHT22;4455;50.880;4.698;2022-07-01T13:20:32;22.80;93.40
8838;DHT22;4455;50.880;4.698;2022-07-01T13:22:58;22.60;94.10
8838;DHT22;4455;50.880;4.698;2022-07-01T13:25:25;22.50;94.40
8838;DHT22;4455;50.880;4.698;2022-07-01T13:27:52;22.60;93.80
8838;DHT22;4455;50.880;4.698;2022-07-01T13:30:19;22.80;92.20
8838;DHT22;4455;50.880;4.698;2022-07-01T13:32:45;22.80;91.10
8838;DHT22;4455;50.880;4.698;2022-07-01T13:35:14;22.90;91.60
8838;DHT22;4455;50.880;4.698;2022-07-01T13:37:40;23.10;87.60
8838;DHT22;4455;50.880;4.698;2022-07-01T13:40:09;23.10;88.00
8838;DHT22;4455;50.880;4.698;2022-07-01T13:42:37;23.20;88.90
8838;DHT22;4455;50.880;4.698;2022-07-01T13:45:04;23.40;90.70
8838;DHT22;4455;50.880;4.698;2022-07-01T13:47:35;23.40;90.10
8838;DHT22;4455;50.880;4.698;2022-07-01T13:50:03;23.50;90.60
8838;DHT22;4455;50.880;4.698;2022-07-01T13:52:32;23.30;90.50
8838;DHT22;4455;50.880;4.698;2022-07-01T13:54:58;23.20;90.70
8838;DHT22;4455;50.880;4.698;2022-07-01T13:57:25;23.10;90.90
8838;DHT22;4455;50.880;4.698;2022-07-01T13:59:52;23.10;89.90
8838;DHT22;4455;50.880;4.698;2022-07-01T14:02:21;23.20;91.00
8838;DHT22;4455;50.880;4.698;2022-07-01T14:04:48;23.30;91.20
8838;DHT22;4455;50.880;4.698;2022-07-01T14:07:15;23.20;90.30
8838;DHT22;4455;50.880;4.698;2022-07-01T14:09:41;23.10;88.80
8838;DHT22;4455;50.880;4.698;2022-07-01T14:12:11;22.90;89.40
8838;DHT22;4455;50.880;4.698;2022-07-01T14:14:38;22.90;90.00
8838;DHT22;4455;50.880;4.698;2022-07-01T14:17:05;22.90;90.00
8838;DHT22;4455;50.880;4.698;2022-07-01T14:19:30;23.00;89.40
8838;DHT22;4455;50.880;4.698;2022-07-01T14:21:56;23.30;89.00
8838;DHT22;4455;50.880;4.698;2022-07-01T14:24:25;23.40;89.20
8838;DHT22;4455;50.880;4.698;2022-07-01T14:26:51;23.40;88.10
8838;DHT22;4455;50.880;4.698;2022-07-01T14:29:19;23.30;90.00
8838;DHT22;4455;50.880;4.698;2022-07-01T14:31:45;23.50;88.80
8838;DHT22;4455;50.880;4.698;2022-07-01T14:34:11;23.60;88.50
8838;DHT22;4455;50.880;4.698;2022-07-01T14:36:37;23.50;89.90
8838;DHT22;4455;50.880;4.698;2022-07-01T14:39:03;23.50;89.80
8838;DHT22;4455;50.880;4.698;2022-07-01T14:41:29;23.40;90.10
8838;DHT22;4455;50.880;4.698;2022-07-01T14:43:55;23.40;90.00
8838;DHT22;4455;50.880;4.698;2022-07-01T14:46:21;23.20;90.70
8838;DHT22;4455;50.880;4.698;2022-07-01T14:48:47;23.20;91.10
8838;DHT22;4455;50.880;4.698;2022-07-01T14:51:13;23.10;90.60
8838;DHT22;4455;50.880;4.698;2022-07-01T14:53:39;23.00;91.00
8838;DHT22;4455;50.880;4.698;2022-07-01T14:56:05;22.90;90.90
8838;DHT22;4455;50.880;4.698;2022-07-01T14:58:31;22.70;91.50
8838;DHT22;4455;50.880;4.698;2022-07-01T15:00:57;22.60;91.40
8838;DHT22;4455;50.880;4.698;2022-07-01T15:03:23;22.60;92.70
8838;DHT22;4455;50.880;4.698;2022-07-01T15:05:48;22.60;92.20
8838;DHT22;4455;50.880;4.698;2022-07-01T15:08:15;22.60;92.10
8838;DHT22;4455;50.880;4.698;2022-07-01T15:10:41;22.80;91.80
8838;DHT22;4455;50.880;4.698;2022-07-01T15:13:07;22.90;91.90
8838;DHT22;4455;50.880;4.698;2022-07-01T15:15:33;22.80;92.00
8838;DHT22;4455;50.880;4.698;2022-07-01T15:17:59;22.80;91.30
8838;DHT22;4455;50.880;4.698;2022-07-01T15:20:25;22.80;92.00
8838;DHT22;4455;50.880;4.698;2022-07-01T15:22:51;22.80;92.10
8838;DHT22;4455;50.880;4.698;2022-07-01T15:25:17;22.80;91.50
8838;DHT22;4455;50.880;4.698;2022-07-01T15:27:48;22.80;91.80
8838;DHT22;4455;50.880;4.698;2022-07-01T15:30:14;23.00;91.50
8838;DHT22;4455;50.880;4.698;2022-07-01T15:32:40;23.00;91.10
8838;DHT22;4455;50.880;4.698;2022-07-01T15:35:07;23.00;91.60
8838;DHT22;4455;50.880;4.698;2022-07-01T15:37:36;23.10;91.30
8838;DHT22;4455;50.880;4.698;2022-07-01T15:40:03;23.10;91.10
8838;DHT22;4455;50.880;4.698;2022-07-01T15:42:30;23.10;91.60
8838;DHT22;4455;50.880;4.698;2022-07-01T15:44:56;23.20;91.80
8838;DHT22;4455;50.880;4.698;2022-07-01T15:47:22;23.20;90.70
8838;DHT22;4455;50.880;4.698;2022-07-01T15:50:06;23.10;91.40
8838;DHT22;4455;50.880;4.698;2022-07-01T15:52:32;23.00;91.60
8838;DHT22;4455;50.880;4.698;2022-07-01T15:54:58;22.80;92.20
8838;DHT22;4455;50.880;4.698;2022-07-01T15:57:24;22.80;91.80
8838;DHT22;4455;50.880;4.698;2022-07-01T15:59:50;22.80;91.10
8838;DHT22;4455;50.880;4.698;2022-07-01T16:02:18;22.80;91.00
8838;DHT22;4455;50.880;4.698;2022-07-01T16:04:46;22.80;92.00
8838;DHT22;4455;50.880;4.698;2022-07-01T16:07:17;22.70;91.80
8838;DHT22;4455;50.880;4.698;2022-07-01T16:10:03;22.70;92.20
8838;DHT22;4455;50.880;4.698;2022-07-01T16:12:29;22.70;92.70
8838;DHT22;4455;50.880;4.698;2022-07-01T16:14:58;22.80;92.80
8838;DHT22;4455;50.880;4.698;2022-07-01T16:17:27;22.90;92.70
8838;DHT22;4455;50.880;4.698;2022-07-01T16:19:56;23.00;92.40
8838;DHT22;4455;50.880;4.698;2022-07-01T16:22:25;23.10;92.70
8838;DHT22;4455;50.880;4.698;2022-07-01T16:24:53;23.20;92.30